createdAt,value
2018-01-29T00:31:32.176Z,6.3
2018-01-29T00:41:31.809Z,6.2
2018-01-29T00:51:31.803Z,7.6
2018-01-29T01:31:31.536Z,6.9
2018-01-29T01:51:31.705Z,6.1
2018-01-29T02:02:17.171Z,6.1
2018-01-29T02:11:32.028Z,6.4
2018-01-29T02:31:31.736Z,6.1
2018-01-29T02:52:07.656Z,6.1
2018-01-29T03:01:32.395Z,5.9
2018-01-29T03:11:32.723Z,5.7
2018-01-29T03:41:58.874Z,6.1
2018-01-29T03:52:23.485Z,6.2
2018-01-29T04:01:33.904Z,6.6
2018-01-29T04:12:06.590Z,6.4
2018-01-29T04:31:25.859Z,5.8
2018-01-29T04:41:51.208Z,5.6
2018-01-29T04:51:32.053Z,5.6
2018-01-29T05:01:32.395Z,6.1
2018-01-29T05:11:31.896Z,5.5
2018-01-29T05:22:01.687Z,5.7
2018-01-29T05:31:32.914Z,5.0
2018-01-29T06:01:33.382Z,5.8
2018-01-29T06:21:31.291Z,7.0
2018-01-29T06:31:31.226Z,7.4
2018-01-29T06:41:28.008Z,7.7
2018-01-29T06:51:32.958Z,8.3
2018-01-29T07:01:31.924Z,9.2
2018-01-29T07:11:42.051Z,7.9
2018-01-29T07:21:32.966Z,9.0
2018-01-29T07:31:33.074Z,6.6
2018-01-29T07:41:32.026Z,7.3
2018-01-29T07:51:31.710Z,7.7
2018-01-29T08:01:31.539Z,7.4
2018-01-29T08:11:32.459Z,6.9
2018-01-29T08:21:32.456Z,7.2
2018-01-29T08:31:32.325Z,7.7
2018-01-29T08:51:31.665Z,5.9
2018-01-29T10:02:16.558Z,5.0
2018-01-29T12:51:31.999Z,5.8
2018-01-29T13:01:31.410Z,6.0
2018-01-29T13:32:17.563Z,7.2
2018-01-29T13:41:31.999Z,7.1
2018-01-29T16:11:26.376Z,5.6
2018-01-29T16:21:31.532Z,7.1
2018-01-29T16:31:32.456Z,6.7
2018-01-29T16:41:31.784Z,7.7
2018-01-29T16:51:31.755Z,8.6
2018-01-29T17:11:25.949Z,10.5
2018-01-29T17:21:31.418Z,10.0
2018-01-29T17:31:31.445Z,10.2
2018-01-29T17:41:31.283Z,9.2
2018-01-29T17:51:32.271Z,10.4
2018-01-29T18:01:28.277Z,9.7
2018-01-29T18:11:27.417Z,12.3
2018-01-29T18:21:25.870Z,12.5
2018-01-29T18:31:26.026Z,13.6
2018-01-29T18:41:26.764Z,13.8
2018-01-29T18:51:26.487Z,14.4
2018-01-29T19:01:28.164Z,13.1
2018-01-29T19:11:26.696Z,14.3
2018-01-29T19:21:30.292Z,13.0
2018-01-29T19:31:25.831Z,15.0
2018-01-29T19:41:26.857Z,13.6
2018-01-29T19:51:53.268Z,12.1
2018-01-29T20:01:31.326Z,12.7
2018-01-29T20:11:31.636Z,14.7
2018-01-29T20:21:31.646Z,11.3
2018-01-29T20:31:32.478Z,13.5
2018-01-29T20:41:31.696Z,14.7
2018-01-29T20:51:27.003Z,9.8
2018-01-29T21:31:31.751Z,5.3
2018-01-29T21:52:25.404Z,7.5
2018-01-29T22:01:31.371Z,8.8
2018-01-29T22:11:32.203Z,10.8
2018-01-29T22:21:32.405Z,10.1
2018-01-29T22:31:32.222Z,11.8
2018-01-29T22:41:31.400Z,9.2
2018-01-29T22:51:31.648Z,9.1
2018-01-29T23:11:32.760Z,6.6
2018-01-29T23:21:51.135Z,5.1
2018-01-29T23:51:31.761Z,4.3
